TRA26B EHAM-LCPH
Flight info
| Callsign | TRA26B |
|---|---|
| Flight time | N/A |
| Altitude | 37000 |
| Route | EDUPO Z739 MISGO DCT EKSAK DCT SWALM DCT GASKA DCT ENITA DCT ETVIS DCT BUDWA DCT BUDEX DCT ARSIN DCT BABIT/N0440F390 DCT NEPOS DCT NISVA DCT USALI DCT RODIP DCT BELGI/N0440F390 UN131 KULAR UT39 LAMSA/N0422F330 UT39 TOMBI DCT DASNI DCT TOBAL |
| Aircraft | B738/M-SDE2E3FGHIJ1RWXYZ/LB1 |
Departure
| Time | 2026-04-27 13:18 |
|---|---|
| Airport | Amsterdam Airport Schiphol (EHAM) |
Arrival
| Time | N/A |
|---|---|
| Airport | Paphos International Airport (LCPH) |
| Time | Latitude | Longitude | Altitude | Speed | Heading |
|---|---|---|---|---|---|
| 2026-04-27 12:44 | 52.30709 | 4.76953 | -2 ft | 0 kts | 33° |
| 2026-04-27 12:59 | 52.30705 | 4.76948 | -2 ft | 4 kts | 33° |
| 2026-04-27 12:59 | 52.30687 | 4.76930 | -2 ft | 4 kts | 32° |
| 2026-04-27 12:59 | 52.30666 | 4.76905 | -2 ft | 4 kts | 47° |
| 2026-04-27 13:00 | 52.30656 | 4.76875 | -2 ft | 4 kts | 112° |
| 2026-04-27 13:00 | 52.30673 | 4.76850 | -2 ft | 4 kts | 156° |
| 2026-04-27 13:00 | 52.30696 | 4.76832 | -2 ft | 2 kts | 149° |
| 2026-04-27 13:00 | 52.30698 | 4.76830 | -2 ft | 1 kts | 148° |
| 2026-04-27 13:02 | 52.30697 | 4.76831 | -2 ft | 1 kts | 148° |
| 2026-04-27 13:02 | 52.30678 | 4.76851 | -2 ft | 5 kts | 147° |
| 2026-04-27 13:02 | 52.30657 | 4.76930 | -2 ft | 11 kts | 95° |
| 2026-04-27 13:03 | 52.30603 | 4.77035 | -2 ft | 14 kts | 148° |
| 2026-04-27 13:03 | 52.30519 | 4.77079 | -2 ft | 13 kts | 201° |
| 2026-04-27 13:03 | 52.30465 | 4.76966 | -2 ft | 13 kts | 237° |
| 2026-04-27 13:03 | 52.30418 | 4.76844 | -2 ft | 13 kts | 237° |
| 2026-04-27 13:04 | 52.30359 | 4.76690 | -2 ft | 19 kts | 238° |
| 2026-04-27 13:04 | 52.30279 | 4.76483 | -2 ft | 23 kts | 238° |
| 2026-04-27 13:04 | 52.30194 | 4.76260 | -2 ft | 23 kts | 238° |
| 2026-04-27 13:04 | 52.30112 | 4.76044 | -2 ft | 22 kts | 238° |
| 2026-04-27 13:05 | 52.30031 | 4.75835 | -2 ft | 21 kts | 237° |
| 2026-04-27 13:05 | 52.29951 | 4.75628 | -2 ft | 23 kts | 237° |
| 2026-04-27 13:05 | 52.29867 | 4.75407 | -2 ft | 23 kts | 237° |
| 2026-04-27 13:05 | 52.29856 | 4.75172 | -2 ft | 22 kts | 305° |
| 2026-04-27 13:06 | 52.29967 | 4.74962 | -2 ft | 28 kts | 311° |
| 2026-04-27 13:06 | 52.30099 | 4.74719 | 4 ft | 28 kts | 311° |
| 2026-04-27 13:06 | 52.30225 | 4.74485 | 10 ft | 27 kts | 311° |
| 2026-04-27 13:06 | 52.30350 | 4.74253 | -2 ft | 29 kts | 315° |
| 2026-04-27 13:07 | 52.30537 | 4.74203 | -2 ft | 28 kts | 3° |
| 2026-04-27 13:07 | 52.30723 | 4.74221 | -2 ft | 26 kts | 3° |
| 2026-04-27 13:07 | 52.30898 | 4.74237 | -2 ft | 24 kts | 3° |
| 2026-04-27 13:07 | 52.31061 | 4.74253 | -2 ft | 23 kts | 3° |
| 2026-04-27 13:08 | 52.31218 | 4.74266 | -2 ft | 22 kts | 3° |
| 2026-04-27 13:08 | 52.31370 | 4.74280 | -2 ft | 22 kts | 4° |
| 2026-04-27 13:08 | 52.31518 | 4.74294 | -2 ft | 21 kts | 4° |
| 2026-04-27 13:08 | 52.31662 | 4.74308 | -2 ft | 20 kts | 4° |
| 2026-04-27 13:09 | 52.31801 | 4.74321 | -2 ft | 20 kts | 3° |
| 2026-04-27 13:09 | 52.31936 | 4.74331 | -2 ft | 19 kts | 2° |
| 2026-04-27 13:09 | 52.32030 | 4.74225 | -2 ft | 18 kts | 276° |
| 2026-04-27 13:09 | 52.32038 | 4.74000 | -3 ft | 23 kts | 274° |
| 2026-04-27 13:10 | 52.32047 | 4.73704 | -2 ft | 29 kts | 272° |
| 2026-04-27 13:10 | 52.32080 | 4.73381 | -2 ft | 29 kts | 303° |
| 2026-04-27 13:10 | 52.32222 | 4.73168 | -2 ft | 27 kts | 320° |
| 2026-04-27 13:10 | 52.32360 | 4.72975 | -2 ft | 25 kts | 319° |
| 2026-04-27 13:11 | 52.32488 | 4.72793 | -2 ft | 24 kts | 319° |
| 2026-04-27 13:11 | 52.32610 | 4.72624 | -2 ft | 23 kts | 320° |
| 2026-04-27 13:11 | 52.32720 | 4.72444 | -2 ft | 22 kts | 311° |
| 2026-04-27 13:11 | 52.32821 | 4.72255 | -2 ft | 23 kts | 311° |
| 2026-04-27 13:12 | 52.32926 | 4.72060 | -2 ft | 22 kts | 311° |
| 2026-04-27 13:12 | 52.33029 | 4.71873 | -2 ft | 22 kts | 311° |
| 2026-04-27 13:12 | 52.33128 | 4.71690 | -2 ft | 21 kts | 307° |
| 2026-04-27 13:12 | 52.33139 | 4.71524 | -2 ft | 14 kts | 245° |
| 2026-04-27 13:13 | 52.33083 | 4.71429 | -2 ft | 11 kts | 221° |
| 2026-04-27 13:13 | 52.33030 | 4.71352 | -2 ft | 10 kts | 221° |
| 2026-04-27 13:13 | 52.32979 | 4.71279 | -2 ft | 10 kts | 221° |
| 2026-04-27 13:13 | 52.32931 | 4.71210 | -2 ft | 8 kts | 220° |
| 2026-04-27 13:14 | 52.32896 | 4.71161 | -2 ft | 4 kts | 221° |
| 2026-04-27 13:14 | 52.32894 | 4.71158 | -2 ft | 0 kts | 221° |
| 2026-04-27 13:14 | 52.32893 | 4.71157 | -2 ft | 1 kts | 221° |
| 2026-04-27 13:15 | 52.32875 | 4.71125 | -2 ft | 6 kts | 233° |
| 2026-04-27 13:15 | 52.32861 | 4.71063 | -2 ft | 5 kts | 267° |
| 2026-04-27 13:15 | 52.32861 | 4.71052 | -2 ft | 0 kts | 271° |
| 2026-04-27 13:15 | 52.32861 | 4.71046 | -3 ft | 2 kts | 271° |
| 2026-04-27 13:16 | 52.32863 | 4.70980 | -3 ft | 10 kts | 274° |
| 2026-04-27 13:16 | 52.32890 | 4.70897 | -3 ft | 7 kts | 345° |
| 2026-04-27 13:16 | 52.32906 | 4.70897 | -3 ft | 0 kts | 3° |
| 2026-04-27 13:16 | 52.32907 | 4.70897 | -3 ft | 0 kts | 3° |
| 2026-04-27 13:17 | 52.32925 | 4.70898 | -4 ft | 11 kts | 3° |
| 2026-04-27 13:17 | 52.33231 | 4.70926 | -5 ft | 78 kts | 3° |
| 2026-04-27 13:17 | 52.33977 | 4.70994 | -2 ft | 135 kts | 3° |
| 2026-04-27 13:17 | 52.35044 | 4.71108 | 208 ft | 162 kts | 4° |
| 2026-04-27 13:18 | 52.36180 | 4.71224 | 841 ft | 166 kts | 4° |
| 2026-04-27 13:18 | 52.37381 | 4.71328 | 1336 ft | 183 kts | 4° |
| 2026-04-27 13:18 | 52.38735 | 4.71434 | 1704 ft | 204 kts | 3° |
| 2026-04-27 13:18 | 52.40206 | 4.71543 | 2062 ft | 217 kts | 3° |
| 2026-04-27 13:19 | 52.41781 | 4.71757 | 2368 ft | 238 kts | 14° |
| 2026-04-27 13:19 | 52.43343 | 4.72844 | 2861 ft | 249 kts | 30° |
| 2026-04-27 13:19 | 52.44843 | 4.74285 | 3599 ft | 252 kts | 31° |
| 2026-04-27 13:19 | 52.46383 | 4.75779 | 4224 ft | 260 kts | 33° |
| 2026-04-27 13:20 | 52.47696 | 4.77780 | 4994 ft | 260 kts | 58° |
| 2026-04-27 13:20 | 52.48248 | 4.80595 | 5638 ft | 265 kts | 84° |
| 2026-04-27 13:20 | 52.48351 | 4.83616 | 6431 ft | 263 kts | 87° |
| 2026-04-27 13:20 | 52.48432 | 4.86660 | 6993 ft | 273 kts | 86° |
| 2026-04-27 13:21 | 52.48418 | 4.89810 | 7579 ft | 280 kts | 99° |
| 2026-04-27 13:21 | 52.47666 | 4.92744 | 8242 ft | 284 kts | 128° |
| 2026-04-27 13:21 | 52.46213 | 4.94928 | 9024 ft | 281 kts | 141° |
| 2026-04-27 13:21 | 52.44921 | 4.97311 | 9681 ft | 285 kts | 122° |
| 2026-04-27 13:22 | 52.43889 | 5.00138 | 10186 ft | 293 kts | 120° |
| 2026-04-27 13:22 | 52.42842 | 5.03038 | 10779 ft | 297 kts | 121° |
| 2026-04-27 13:22 | 52.41778 | 5.05957 | 11433 ft | 300 kts | 121° |
| 2026-04-27 13:22 | 52.40694 | 5.08899 | 12074 ft | 303 kts | 122° |
| 2026-04-27 13:23 | 52.39592 | 5.11862 | 12697 ft | 307 kts | 122° |
| 2026-04-27 13:23 | 52.38469 | 5.14863 | 13312 ft | 311 kts | 122° |
| 2026-04-27 13:23 | 52.37327 | 5.17895 | 13916 ft | 316 kts | 123° |
| 2026-04-27 13:23 | 52.36160 | 5.20980 | 14509 ft | 321 kts | 123° |
| 2026-04-27 13:24 | 52.34980 | 5.24102 | 15152 ft | 326 kts | 123° |
| 2026-04-27 13:24 | 52.33786 | 5.27265 | 15807 ft | 327 kts | 123° |
| 2026-04-27 13:24 | 52.32571 | 5.30435 | 16316 ft | 333 kts | 124° |
| 2026-04-27 13:24 | 52.31301 | 5.33748 | 16437 ft | 353 kts | 124° |
| 2026-04-27 13:25 | 52.29968 | 5.37226 | 16815 ft | 365 kts | 124° |
| 2026-04-27 13:25 | 52.28615 | 5.40765 | 17430 ft | 369 kts | 123° |
| 2026-04-27 13:25 | 52.27248 | 5.44336 | 18044 ft | 373 kts | 124° |
| 2026-04-27 13:25 | 52.25863 | 5.47942 | 18582 ft | 377 kts | 124° |
| 2026-04-27 13:26 | 52.24460 | 5.51590 | 19138 ft | 381 kts | 124° |
| 2026-04-27 13:26 | 52.23042 | 5.55270 | 19692 ft | 384 kts | 124° |
| 2026-04-27 13:26 | 52.21615 | 5.58969 | 20252 ft | 387 kts | 124° |
| 2026-04-27 13:26 | 52.20171 | 5.62705 | 20763 ft | 391 kts | 124° |
| 2026-04-27 13:27 | 52.18733 | 5.66418 | 21267 ft | 395 kts | 125° |
| 2026-04-27 13:27 | 52.17261 | 5.70216 | 21771 ft | 398 kts | 125° |
| 2026-04-27 13:27 | 52.15776 | 5.74040 | 22264 ft | 401 kts | 125° |
| 2026-04-27 13:27 | 52.14279 | 5.77888 | 22744 ft | 404 kts | 125° |
| 2026-04-27 13:28 | 52.12771 | 5.81762 | 23222 ft | 407 kts | 125° |
| 2026-04-27 13:28 | 52.11230 | 5.85717 | 23682 ft | 410 kts | 125° |
| 2026-04-27 13:28 | 52.09718 | 5.89590 | 24127 ft | 413 kts | 125° |
| 2026-04-27 13:28 | 52.08172 | 5.93544 | 24560 ft | 416 kts | 125° |
| 2026-04-27 13:29 | 52.06612 | 5.97526 | 24977 ft | 419 kts | 126° |
| 2026-04-27 13:29 | 52.05042 | 6.01527 | 25386 ft | 422 kts | 126° |
| 2026-04-27 13:29 | 52.03458 | 6.05560 | 25790 ft | 425 kts | 126° |
| 2026-04-27 13:29 | 52.01863 | 6.09615 | 26156 ft | 428 kts | 126° |
| 2026-04-27 13:30 | 52.00252 | 6.13703 | 26525 ft | 431 kts | 126° |
| 2026-04-27 13:30 | 51.98630 | 6.17810 | 26901 ft | 433 kts | 126° |
| 2026-04-27 13:30 | 51.96999 | 6.21935 | 27261 ft | 436 kts | 126° |
| 2026-04-27 13:30 | 51.95355 | 6.26086 | 27608 ft | 439 kts | 126° |
| 2026-04-27 13:31 | 51.93700 | 6.30257 | 27939 ft | 442 kts | 126° |
| 2026-04-27 13:31 | 51.92030 | 6.34460 | 28267 ft | 444 kts | 126° |
| 2026-04-27 13:31 | 51.90352 | 6.38674 | 28601 ft | 446 kts | 126° |
| 2026-04-27 13:31 | 51.88665 | 6.42907 | 28927 ft | 449 kts | 126° |
| 2026-04-27 13:32 | 51.86966 | 6.47162 | 29230 ft | 451 kts | 126° |
| 2026-04-27 13:32 | 51.85257 | 6.51433 | 29526 ft | 453 kts | 126° |
| 2026-04-27 13:32 | 51.83537 | 6.55727 | 29816 ft | 456 kts | 126° |
| 2026-04-27 13:32 | 51.81808 | 6.60035 | 30089 ft | 458 kts | 126° |
| 2026-04-27 13:33 | 51.80070 | 6.64359 | 30381 ft | 460 kts | 126° |
| 2026-04-27 13:33 | 51.78322 | 6.68701 | 30668 ft | 462 kts | 126° |
| 2026-04-27 13:33 | 51.76569 | 6.73047 | 30935 ft | 463 kts | 126° |
| 2026-04-27 13:33 | 51.74804 | 6.77416 | 31174 ft | 466 kts | 126° |
| 2026-04-27 13:34 | 51.73028 | 6.81802 | 31429 ft | 467 kts | 126° |
| 2026-04-27 13:34 | 51.71249 | 6.86191 | 31700 ft | 468 kts | 126° |
| 2026-04-27 13:34 | 51.69463 | 6.90589 | 31927 ft | 470 kts | 126° |
| 2026-04-27 13:34 | 51.67665 | 6.95009 | 32148 ft | 472 kts | 126° |
| 2026-04-27 13:35 | 51.65860 | 6.99444 | 32359 ft | 474 kts | 126° |
| 2026-04-27 13:35 | 51.64044 | 7.03893 | 32583 ft | 476 kts | 126° |
| 2026-04-27 13:35 | 51.62224 | 7.08345 | 32807 ft | 477 kts | 126° |
| 2026-04-27 13:35 | 51.60398 | 7.12808 | 33017 ft | 478 kts | 127° |
| 2026-04-27 13:36 | 51.58561 | 7.17284 | 33197 ft | 481 kts | 127° |
| 2026-04-27 13:36 | 51.56714 | 7.21772 | 33383 ft | 482 kts | 127° |
| 2026-04-27 13:36 | 51.54861 | 7.26266 | 33595 ft | 483 kts | 127° |
| 2026-04-27 13:36 | 51.53631 | 7.29247 | 33721 ft | 483 kts | 127° |
| 2026-04-27 13:37 | 51.51768 | 7.33757 | 33890 ft | 486 kts | 127° |
| 2026-04-27 13:37 | 51.49896 | 7.38281 | 34052 ft | 487 kts | 127° |
| 2026-04-27 13:37 | 51.47417 | 7.44266 | 34408 ft | 486 kts | 127° |
| 2026-04-27 13:37 | 51.45548 | 7.48766 | 34682 ft | 484 kts | 127° |
| 2026-04-27 13:38 | 51.43678 | 7.53259 | 34890 ft | 485 kts | 127° |
| 2026-04-27 13:38 | 51.42412 | 7.56297 | 35011 ft | 485 kts | 127° |
| 2026-04-27 13:38 | 51.40536 | 7.60793 | 35246 ft | 484 kts | 127° |
| 2026-04-27 13:38 | 51.38665 | 7.65269 | 35477 ft | 484 kts | 127° |
| 2026-04-27 13:39 | 51.36820 | 7.69677 | 35676 ft | 484 kts | 127° |
| 2026-04-27 13:39 | 51.34919 | 7.74208 | 35882 ft | 483 kts | 127° |
| 2026-04-27 13:39 | 51.33072 | 7.78604 | 36055 ft | 483 kts | 127° |
| 2026-04-27 13:39 | 51.31195 | 7.83063 | 36253 ft | 483 kts | 127° |
| 2026-04-27 13:40 | 51.29320 | 7.87509 | 36435 ft | 483 kts | 127° |
| 2026-04-27 13:40 | 51.27442 | 7.91956 | 36576 ft | 484 kts | 127° |
| 2026-04-27 13:40 | 51.25561 | 7.96401 | 36837 ft | 481 kts | 127° |
| 2026-04-27 13:40 | 51.23703 | 8.00791 | 37223 ft | 475 kts | 127° |
| 2026-04-27 13:41 | 51.19969 | 8.09580 | 37250 ft | 481 kts | 126° |
| 2026-04-27 13:41 | 51.16197 | 8.18417 | 37231 ft | 481 kts | 126° |
| 2026-04-27 13:42 | 51.12433 | 8.27215 | 37240 ft | 480 kts | 127° |
| 2026-04-27 13:42 | 51.08673 | 8.35977 | 37236 ft | 479 kts | 127° |
| 2026-04-27 13:43 | 51.04916 | 8.44702 | 37242 ft | 478 kts | 127° |
| 2026-04-27 13:43 | 51.01156 | 8.53406 | 37239 ft | 477 kts | 127° |
| 2026-04-27 13:44 | 50.97395 | 8.62081 | 37236 ft | 477 kts | 127° |
| 2026-04-27 13:44 | 50.93625 | 8.70745 | 37237 ft | 478 kts | 127° |
| 2026-04-27 13:45 | 50.89868 | 8.79353 | 37233 ft | 478 kts | 127° |
| 2026-04-27 13:45 | 50.86077 | 8.88010 | 37235 ft | 479 kts | 127° |
| 2026-04-27 13:46 | 50.82273 | 8.96671 | 37231 ft | 480 kts | 127° |
| 2026-04-27 13:46 | 50.78456 | 9.05336 | 37233 ft | 481 kts | 127° |
| 2026-04-27 13:47 | 50.74622 | 9.14009 | 37230 ft | 482 kts | 127° |
| 2026-04-27 13:47 | 50.70854 | 9.22756 | 37225 ft | 483 kts | 121° |
| 2026-04-27 13:48 | 50.67690 | 9.32124 | 37231 ft | 485 kts | 118° |
| 2026-04-27 13:48 | 50.64626 | 9.41591 | 37232 ft | 485 kts | 118° |
| 2026-04-27 13:49 | 50.61508 | 9.51010 | 37232 ft | 485 kts | 119° |
| 2026-04-27 13:49 | 50.58346 | 9.60391 | 37234 ft | 485 kts | 119° |
| 2026-04-27 13:50 | 50.55166 | 9.69756 | 37236 ft | 485 kts | 119° |
| 2026-04-27 13:50 | 50.51981 | 9.79114 | 37226 ft | 486 kts | 119° |
| 2026-04-27 13:51 | 50.48791 | 9.88460 | 37230 ft | 486 kts | 119° |
| 2026-04-27 13:51 | 50.45595 | 9.97788 | 37228 ft | 485 kts | 119° |
| 2026-04-27 13:52 | 50.42413 | 10.07043 | 37220 ft | 485 kts | 119° |
| 2026-04-27 13:52 | 50.39206 | 10.16334 | 37233 ft | 484 kts | 119° |
| 2026-04-27 13:53 | 50.34446 | 10.30293 | 37220 ft | 484 kts | 116° |
| 2026-04-27 13:54 | 50.31673 | 10.39899 | 37228 ft | 485 kts | 114° |
| 2026-04-27 13:54 | 50.28989 | 10.49575 | 37217 ft | 485 kts | 114° |
| 2026-04-27 13:55 | 50.26274 | 10.59218 | 37214 ft | 485 kts | 114° |
| 2026-04-27 13:55 | 50.23519 | 10.68842 | 37214 ft | 485 kts | 114° |
| 2026-04-27 13:56 | 50.20751 | 10.78436 | 37212 ft | 485 kts | 114° |
| 2026-04-27 13:56 | 50.17976 | 10.88017 | 37215 ft | 485 kts | 114° |
| 2026-04-27 13:57 | 50.15196 | 10.97584 | 37210 ft | 484 kts | 114° |
| 2026-04-27 13:57 | 50.12407 | 11.07140 | 37212 ft | 484 kts | 114° |
| 2026-04-27 13:58 | 50.09608 | 11.16697 | 37207 ft | 485 kts | 114° |
| 2026-04-27 13:58 | 50.06800 | 11.26242 | 37204 ft | 485 kts | 114° |
| 2026-04-27 13:59 | 50.03980 | 11.35790 | 37202 ft | 486 kts | 114° |
| 2026-04-27 13:59 | 50.01154 | 11.45324 | 37193 ft | 486 kts | 114° |
| 2026-04-27 14:00 | 49.98318 | 11.54855 | 37196 ft | 486 kts | 114° |
| 2026-04-27 14:00 | 49.95497 | 11.64302 | 37191 ft | 485 kts | 114° |
| 2026-04-27 14:01 | 49.92650 | 11.73797 | 37191 ft | 485 kts | 114° |
| 2026-04-27 14:01 | 49.89794 | 11.83288 | 37181 ft | 485 kts | 114° |
| 2026-04-27 14:02 | 49.86929 | 11.92760 | 37188 ft | 485 kts | 114° |
| 2026-04-27 14:02 | 49.84058 | 12.02223 | 37174 ft | 485 kts | 115° |
| 2026-04-27 14:03 | 49.81182 | 12.11657 | 37187 ft | 484 kts | 115° |
| 2026-04-27 14:03 | 49.78301 | 12.21080 | 37183 ft | 484 kts | 115° |
| 2026-04-27 14:04 | 49.75414 | 12.30493 | 37195 ft | 484 kts | 115° |
| 2026-04-27 14:04 | 49.72520 | 12.39892 | 37179 ft | 484 kts | 115° |
| 2026-04-27 14:05 | 49.69850 | 12.49408 | 37177 ft | 482 kts | 104° |
| 2026-04-27 14:05 | 49.68436 | 12.59470 | 37195 ft | 479 kts | 99° |
| 2026-04-27 14:06 | 49.67117 | 12.69558 | 37193 ft | 479 kts | 100° |
| 2026-04-27 14:06 | 49.65556 | 12.79561 | 37184 ft | 481 kts | 108° |
| 2026-04-27 14:07 | 49.62470 | 12.88693 | 37204 ft | 482 kts | 124° |
| 2026-04-27 14:07 | 49.58619 | 12.97137 | 37199 ft | 482 kts | 125° |
| 2026-04-27 14:08 | 49.54768 | 13.05594 | 37203 ft | 482 kts | 124° |
| 2026-04-27 14:08 | 49.50955 | 13.14076 | 37214 ft | 482 kts | 124° |
| 2026-04-27 14:09 | 49.47148 | 13.22570 | 37214 ft | 483 kts | 124° |
| 2026-04-27 14:09 | 49.43334 | 13.31050 | 37212 ft | 483 kts | 124° |
| 2026-04-27 14:10 | 49.39501 | 13.39536 | 37216 ft | 483 kts | 124° |
| 2026-04-27 14:10 | 49.35687 | 13.47957 | 37207 ft | 484 kts | 124° |
| 2026-04-27 14:11 | 49.31854 | 13.56396 | 37200 ft | 483 kts | 124° |
| 2026-04-27 14:11 | 49.27991 | 13.64854 | 37205 ft | 484 kts | 125° |
| 2026-04-27 14:12 | 49.24034 | 13.73181 | 37198 ft | 484 kts | 126° |
| 2026-04-27 14:12 | 49.20038 | 13.81461 | 37204 ft | 484 kts | 126° |
| 2026-04-27 14:13 | 49.16047 | 13.89739 | 37197 ft | 484 kts | 126° |
| 2026-04-27 14:13 | 49.12061 | 13.98020 | 37191 ft | 484 kts | 126° |
| 2026-04-27 14:14 | 49.08067 | 14.06295 | 37196 ft | 484 kts | 126° |
| 2026-04-27 14:14 | 49.04069 | 14.14556 | 37186 ft | 484 kts | 126° |
| 2026-04-27 14:15 | 49.00066 | 14.22796 | 37173 ft | 483 kts | 126° |
| 2026-04-27 14:15 | 48.96068 | 14.31001 | 37180 ft | 482 kts | 126° |
| 2026-04-27 14:16 | 48.91950 | 14.39056 | 37177 ft | 482 kts | 129° |
| 2026-04-27 14:16 | 48.87640 | 14.46846 | 37180 ft | 481 kts | 130° |
| 2026-04-27 14:17 | 48.83289 | 14.54641 | 37379 ft | 484 kts | 130° |
| 2026-04-27 14:17 | 48.81128 | 14.58533 | 37643 ft | 481 kts | 130° |
| 2026-04-27 14:17 | 48.78985 | 14.62406 | 37919 ft | 477 kts | 130° |
| 2026-04-27 14:17 | 48.76888 | 14.66201 | 38160 ft | 475 kts | 130° |
| 2026-04-27 14:18 | 48.74741 | 14.70086 | 38368 ft | 473 kts | 130° |
| 2026-04-27 14:18 | 48.72624 | 14.73912 | 38476 ft | 474 kts | 130° |
| 2026-04-27 14:18 | 48.70534 | 14.77686 | 38582 ft | 474 kts | 130° |
| 2026-04-27 14:18 | 48.68412 | 14.81511 | 38700 ft | 474 kts | 130° |
| 2026-04-27 14:19 | 48.66288 | 14.85334 | 38813 ft | 475 kts | 130° |
| 2026-04-27 14:19 | 48.64162 | 14.89154 | 38932 ft | 474 kts | 130° |
| 2026-04-27 14:19 | 48.62038 | 14.92964 | 39076 ft | 473 kts | 130° |
| 2026-04-27 14:20 | 48.57790 | 15.00567 | 39160 ft | 475 kts | 130° |
| 2026-04-27 14:20 | 48.53509 | 15.08208 | 39193 ft | 478 kts | 130° |
| 2026-04-27 14:21 | 48.49194 | 15.15889 | 39199 ft | 482 kts | 130° |
| 2026-04-27 14:21 | 48.44837 | 15.23617 | 39178 ft | 485 kts | 130° |
| 2026-04-27 14:22 | 48.40450 | 15.31382 | 39177 ft | 488 kts | 130° |
| 2026-04-27 14:22 | 48.36042 | 15.39162 | 39176 ft | 489 kts | 130° |
| 2026-04-27 14:23 | 48.31628 | 15.46926 | 39176 ft | 488 kts | 130° |
| 2026-04-27 14:23 | 48.27214 | 15.54664 | 39174 ft | 487 kts | 130° |
| 2026-04-27 14:24 | 48.22816 | 15.62356 | 39179 ft | 485 kts | 130° |
| 2026-04-27 14:24 | 48.18410 | 15.70039 | 39175 ft | 484 kts | 130° |
| 2026-04-27 14:25 | 48.14028 | 15.77656 | 39172 ft | 482 kts | 131° |
| 2026-04-27 14:25 | 48.09657 | 15.85236 | 39173 ft | 480 kts | 131° |
| 2026-04-27 14:26 | 48.05294 | 15.92779 | 39172 ft | 479 kts | 131° |
| 2026-04-27 14:26 | 48.01673 | 15.99023 | 39172 ft | 478 kts | 131° |
| 2026-04-27 14:27 | 47.97322 | 16.06507 | 39179 ft | 477 kts | 131° |
| 2026-04-27 14:27 | 47.92974 | 16.13967 | 39197 ft | 476 kts | 131° |
| 2026-04-27 14:28 | 47.88617 | 16.21418 | 39182 ft | 477 kts | 131° |
| 2026-04-27 14:28 | 47.84248 | 16.28870 | 39199 ft | 478 kts | 131° |
| 2026-04-27 14:29 | 47.79871 | 16.36322 | 39196 ft | 479 kts | 131° |
| 2026-04-27 14:29 | 47.75479 | 16.43773 | 39193 ft | 480 kts | 131° |
| 2026-04-27 14:30 | 47.71070 | 16.51224 | 39173 ft | 481 kts | 131° |
| 2026-04-27 14:30 | 47.66645 | 16.58691 | 39182 ft | 482 kts | 131° |
| 2026-04-27 14:31 | 47.62209 | 16.66157 | 39182 ft | 482 kts | 131° |
| 2026-04-27 14:31 | 47.57767 | 16.73611 | 39182 ft | 483 kts | 131° |
| 2026-04-27 14:32 | 47.53089 | 16.80743 | 39180 ft | 483 kts | 137° |
| 2026-04-27 14:32 | 47.48145 | 16.87453 | 39182 ft | 482 kts | 138° |
| 2026-04-27 14:33 | 47.43199 | 16.94119 | 39179 ft | 481 kts | 138° |
| 2026-04-27 14:33 | 47.38296 | 17.00811 | 39178 ft | 479 kts | 137° |
| 2026-04-27 14:34 | 47.33420 | 17.07505 | 39179 ft | 478 kts | 137° |
| 2026-04-27 14:34 | 47.28558 | 17.14173 | 39181 ft | 477 kts | 137° |
| 2026-04-27 14:35 | 47.23703 | 17.20808 | 39193 ft | 475 kts | 137° |
| 2026-04-27 14:35 | 47.18857 | 17.27414 | 39195 ft | 474 kts | 137° |
| 2026-04-27 14:36 | 47.14014 | 17.33995 | 39182 ft | 474 kts | 137° |
| 2026-04-27 14:36 | 47.09208 | 17.40511 | 39189 ft | 473 kts | 137° |
| 2026-04-27 14:37 | 47.04364 | 17.47060 | 39183 ft | 474 kts | 138° |
| 2026-04-27 14:37 | 46.99516 | 17.53601 | 39198 ft | 474 kts | 137° |
| 2026-04-27 14:38 | 46.94659 | 17.60134 | 39180 ft | 474 kts | 138° |
| 2026-04-27 14:38 | 46.89790 | 17.66663 | 39190 ft | 475 kts | 138° |
| 2026-04-27 14:39 | 46.84917 | 17.73184 | 39182 ft | 475 kts | 138° |
| 2026-04-27 14:39 | 46.80039 | 17.79697 | 39186 ft | 476 kts | 138° |
| 2026-04-27 14:40 | 46.75149 | 17.86208 | 39183 ft | 476 kts | 138° |
| 2026-04-27 14:40 | 46.70254 | 17.92706 | 39185 ft | 476 kts | 138° |
| 2026-04-27 14:41 | 46.65358 | 17.99190 | 39174 ft | 476 kts | 138° |
| 2026-04-27 14:41 | 46.60463 | 18.05657 | 39191 ft | 475 kts | 138° |
| 2026-04-27 14:42 | 46.55565 | 18.12110 | 39183 ft | 475 kts | 138° |
| 2026-04-27 14:42 | 46.50669 | 18.18547 | 39188 ft | 475 kts | 138° |
| 2026-04-27 14:43 | 46.45772 | 18.24969 | 39182 ft | 474 kts | 138° |
| 2026-04-27 14:43 | 46.40881 | 18.31364 | 39190 ft | 473 kts | 138° |
| 2026-04-27 14:44 | 46.35994 | 18.37739 | 39181 ft | 473 kts | 138° |
| 2026-04-27 14:44 | 46.31103 | 18.44102 | 39180 ft | 473 kts | 138° |
| 2026-04-27 14:45 | 46.26211 | 18.50453 | 39193 ft | 472 kts | 138° |
| 2026-04-27 14:45 | 46.21320 | 18.56787 | 39182 ft | 472 kts | 138° |
| 2026-04-27 14:46 | 46.16462 | 18.63061 | 39180 ft | 472 kts | 139° |
| 2026-04-27 14:46 | 46.11569 | 18.69364 | 39182 ft | 471 kts | 139° |
| 2026-04-27 14:47 | 46.06676 | 18.75653 | 39183 ft | 471 kts | 139° |
| 2026-04-27 14:47 | 46.01779 | 18.81932 | 39174 ft | 472 kts | 139° |
| 2026-04-27 14:48 | 45.96873 | 18.88208 | 39179 ft | 472 kts | 139° |
| 2026-04-27 14:48 | 45.89566 | 18.97703 | 39174 ft | 472 kts | 137° |
| 2026-04-27 14:49 | 45.84816 | 19.04225 | 39166 ft | 473 kts | 137° |
| 2026-04-27 14:49 | 45.80067 | 19.10751 | 39169 ft | 473 kts | 137° |
| 2026-04-27 14:50 | 45.75305 | 19.17239 | 39162 ft | 472 kts | 137° |
| 2026-04-27 14:50 | 45.70535 | 19.23696 | 39168 ft | 472 kts | 137° |
| 2026-04-27 14:51 | 45.65763 | 19.30131 | 39165 ft | 471 kts | 137° |
| 2026-04-27 14:51 | 45.61796 | 19.35468 | 39165 ft | 471 kts | 137° |
| 2026-04-27 14:52 | 45.56220 | 19.42960 | 39167 ft | 471 kts | 137° |
| 2026-04-27 14:52 | 45.51446 | 19.49356 | 39165 ft | 470 kts | 137° |
| 2026-04-27 14:53 | 45.46708 | 19.55689 | 39166 ft | 470 kts | 137° |
| 2026-04-27 14:53 | 45.41935 | 19.62047 | 39159 ft | 470 kts | 138° |
| 2026-04-27 14:54 | 45.37161 | 19.68395 | 39157 ft | 470 kts | 138° |
| 2026-04-27 14:54 | 45.32383 | 19.74738 | 39155 ft | 470 kts | 138° |
| 2026-04-27 14:55 | 45.27594 | 19.81076 | 39158 ft | 470 kts | 138° |
| 2026-04-27 14:55 | 45.22806 | 19.87398 | 39159 ft | 471 kts | 138° |
| 2026-04-27 14:56 | 45.18004 | 19.93722 | 39159 ft | 471 kts | 138° |
| 2026-04-27 14:56 | 45.13196 | 20.00040 | 39155 ft | 472 kts | 138° |
| 2026-04-27 14:57 | 45.08380 | 20.06352 | 39156 ft | 472 kts | 139° |
| 2026-04-27 14:57 | 45.03558 | 20.12657 | 39157 ft | 472 kts | 139° |
| 2026-04-27 14:58 | 44.98730 | 20.18952 | 39160 ft | 472 kts | 139° |
| 2026-04-27 14:58 | 44.93893 | 20.25242 | 39159 ft | 473 kts | 139° |
| 2026-04-27 14:59 | 44.89048 | 20.31536 | 39155 ft | 473 kts | 139° |
| 2026-04-27 14:59 | 44.84199 | 20.37819 | 39160 ft | 474 kts | 139° |
| 2026-04-27 15:00 | 44.79336 | 20.44101 | 39158 ft | 474 kts | 139° |
| 2026-04-27 15:00 | 44.74470 | 20.50377 | 39155 ft | 475 kts | 140° |
| 2026-04-27 15:01 | 44.69597 | 20.56642 | 39155 ft | 475 kts | 140° |
| 2026-04-27 15:01 | 44.64717 | 20.62898 | 39161 ft | 475 kts | 140° |
| 2026-04-27 15:02 | 44.59832 | 20.69150 | 39157 ft | 475 kts | 140° |
| 2026-04-27 15:02 | 44.54944 | 20.75390 | 39157 ft | 475 kts | 140° |
| 2026-04-27 15:03 | 44.50056 | 20.81616 | 39147 ft | 475 kts | 140° |
| 2026-04-27 15:03 | 44.45163 | 20.87834 | 39145 ft | 475 kts | 140° |
| 2026-04-27 15:04 | 44.40270 | 20.94033 | 39148 ft | 474 kts | 140° |
| 2026-04-27 15:04 | 44.35381 | 21.00215 | 39152 ft | 473 kts | 140° |
| 2026-04-27 15:05 | 44.30498 | 21.06377 | 39150 ft | 473 kts | 140° |
| 2026-04-27 15:05 | 44.25617 | 21.12523 | 39142 ft | 472 kts | 140° |
| 2026-04-27 15:06 | 44.20738 | 21.18651 | 39134 ft | 472 kts | 140° |
| 2026-04-27 15:06 | 44.15857 | 21.24769 | 39144 ft | 472 kts | 140° |
| 2026-04-27 15:07 | 44.10970 | 21.30879 | 39133 ft | 472 kts | 140° |
| 2026-04-27 15:07 | 44.06077 | 21.36976 | 39146 ft | 472 kts | 140° |
| 2026-04-27 15:08 | 44.01221 | 21.43025 | 39138 ft | 472 kts | 140° |
| 2026-04-27 15:08 | 43.96423 | 21.49237 | 39139 ft | 472 kts | 138° |
| 2026-04-27 15:09 | 43.91734 | 21.55628 | 39135 ft | 472 kts | 138° |
| 2026-04-27 15:09 | 43.87044 | 21.62005 | 39141 ft | 472 kts | 138° |
| 2026-04-27 15:10 | 43.82330 | 21.68341 | 39140 ft | 472 kts | 138° |
| 2026-04-27 15:10 | 43.77601 | 21.74661 | 39136 ft | 473 kts | 139° |
| 2026-04-27 15:11 | 43.72864 | 21.80971 | 39143 ft | 473 kts | 139° |
| 2026-04-27 15:11 | 43.68128 | 21.87272 | 39133 ft | 473 kts | 139° |
| 2026-04-27 15:12 | 43.63392 | 21.93559 | 39143 ft | 472 kts | 139° |
| 2026-04-27 15:12 | 43.58649 | 21.99840 | 39124 ft | 472 kts | 139° |
| 2026-04-27 15:13 | 43.54712 | 22.05041 | 39131 ft | 472 kts | 139° |
| 2026-04-27 15:13 | 43.49973 | 22.11289 | 39128 ft | 472 kts | 139° |
| 2026-04-27 15:14 | 43.45227 | 22.17525 | 39135 ft | 471 kts | 139° |
| 2026-04-27 15:14 | 43.40483 | 22.23756 | 39129 ft | 471 kts | 139° |
| 2026-04-27 15:15 | 43.35735 | 22.29979 | 39129 ft | 472 kts | 138° |
| 2026-04-27 15:15 | 43.30980 | 22.36192 | 39128 ft | 472 kts | 138° |
| 2026-04-27 15:16 | 43.26216 | 22.42400 | 39130 ft | 472 kts | 138° |
| 2026-04-27 15:16 | 43.21451 | 22.48598 | 39125 ft | 472 kts | 139° |
| 2026-04-27 15:17 | 43.16685 | 22.54780 | 39135 ft | 472 kts | 139° |
| 2026-04-27 15:17 | 43.11916 | 22.60955 | 39127 ft | 472 kts | 139° |
| 2026-04-27 15:18 | 43.07147 | 22.67111 | 39124 ft | 471 kts | 139° |
| 2026-04-27 15:18 | 43.02390 | 22.73253 | 39134 ft | 470 kts | 139° |
| 2026-04-27 15:19 | 42.97626 | 22.79381 | 39124 ft | 470 kts | 139° |
| 2026-04-27 15:19 | 42.92853 | 22.85498 | 39129 ft | 471 kts | 139° |
| 2026-04-27 15:20 | 42.88072 | 22.91609 | 39132 ft | 471 kts | 139° |
| 2026-04-27 15:20 | 42.83283 | 22.97716 | 39127 ft | 472 kts | 139° |
| 2026-04-27 15:21 | 42.78488 | 23.03824 | 39132 ft | 472 kts | 139° |
| 2026-04-27 15:21 | 42.73716 | 23.09892 | 39133 ft | 472 kts | 139° |
| 2026-04-27 15:22 | 42.68910 | 23.15988 | 39132 ft | 473 kts | 139° |
| 2026-04-27 15:22 | 42.64100 | 23.22080 | 39128 ft | 473 kts | 139° |
| 2026-04-27 15:23 | 42.59284 | 23.28157 | 39133 ft | 473 kts | 139° |
| 2026-04-27 15:23 | 42.54464 | 23.34226 | 39131 ft | 472 kts | 139° |
| 2026-04-27 15:24 | 42.49651 | 23.40274 | 39133 ft | 472 kts | 140° |
| 2026-04-27 15:24 | 42.44834 | 23.46319 | 39123 ft | 472 kts | 140° |
| 2026-04-27 15:25 | 42.40013 | 23.52355 | 39131 ft | 472 kts | 140° |
| 2026-04-27 15:25 | 42.35198 | 23.58369 | 39145 ft | 471 kts | 140° |
| 2026-04-27 15:26 | 42.30415 | 23.64327 | 39143 ft | 471 kts | 140° |
| 2026-04-27 15:26 | 42.25536 | 23.70322 | 39145 ft | 470 kts | 141° |
| 2026-04-27 15:27 | 42.20671 | 23.76220 | 39149 ft | 470 kts | 141° |
| 2026-04-27 15:27 | 42.15814 | 23.82102 | 39158 ft | 469 kts | 141° |
| 2026-04-27 15:28 | 42.10957 | 23.87981 | 39163 ft | 469 kts | 141° |
| 2026-04-27 15:28 | 42.06102 | 23.93849 | 39157 ft | 469 kts | 141° |
| 2026-04-27 15:29 | 42.01242 | 23.99715 | 39162 ft | 469 kts | 141° |
| 2026-04-27 15:29 | 41.96382 | 24.05568 | 39169 ft | 469 kts | 141° |
| 2026-04-27 15:30 | 41.91516 | 24.11415 | 39168 ft | 469 kts | 141° |
| 2026-04-27 15:30 | 41.86676 | 24.17219 | 39164 ft | 470 kts | 141° |
| 2026-04-27 15:31 | 41.81841 | 24.23002 | 39168 ft | 470 kts | 141° |
| 2026-04-27 15:31 | 41.76877 | 24.28928 | 39172 ft | 471 kts | 141° |
| 2026-04-27 15:32 | 41.71984 | 24.34757 | 39160 ft | 471 kts | 141° |
| 2026-04-27 15:32 | 41.67092 | 24.40573 | 39174 ft | 470 kts | 141° |
| 2026-04-27 15:33 | 41.62199 | 24.46378 | 39164 ft | 470 kts | 141° |
| 2026-04-27 15:33 | 41.57338 | 24.52135 | 39169 ft | 470 kts | 141° |
| 2026-04-27 15:34 | 41.52406 | 24.57961 | 39162 ft | 470 kts | 141° |
| 2026-04-27 15:34 | 41.47539 | 24.63698 | 39169 ft | 470 kts | 141° |
| 2026-04-27 15:35 | 41.42645 | 24.69456 | 39167 ft | 470 kts | 141° |
| 2026-04-27 15:35 | 41.37876 | 24.75441 | 39169 ft | 470 kts | 138° |
| 2026-04-27 15:36 | 41.33244 | 24.81573 | 39167 ft | 470 kts | 137° |
| 2026-04-27 15:36 | 41.28604 | 24.87697 | 39160 ft | 469 kts | 138° |
| 2026-04-27 15:37 | 41.24097 | 24.93582 | 39167 ft | 468 kts | 138° |
| 2026-04-27 15:37 | 41.19423 | 24.99650 | 39163 ft | 467 kts | 138° |
| 2026-04-27 15:38 | 41.14773 | 25.05670 | 39151 ft | 467 kts | 138° |
| 2026-04-27 15:38 | 41.10128 | 25.11675 | 39160 ft | 466 kts | 138° |
| 2026-04-27 15:39 | 41.05480 | 25.17669 | 39155 ft | 466 kts | 138° |
| 2026-04-27 15:39 | 41.00835 | 25.23647 | 39158 ft | 466 kts | 138° |
| 2026-04-27 15:40 | 40.96184 | 25.29622 | 39156 ft | 466 kts | 138° |
| 2026-04-27 15:40 | 40.91527 | 25.35593 | 39160 ft | 466 kts | 138° |
| 2026-04-27 15:41 | 40.86869 | 25.41559 | 39159 ft | 466 kts | 139° |
| 2026-04-27 15:41 | 40.82204 | 25.47512 | 39156 ft | 466 kts | 139° |
| 2026-04-27 15:42 | 40.77536 | 25.53457 | 39166 ft | 466 kts | 138° |
| 2026-04-27 15:42 | 40.72870 | 25.59389 | 39165 ft | 466 kts | 139° |
| 2026-04-27 15:43 | 40.68203 | 25.65309 | 39167 ft | 466 kts | 139° |
| 2026-04-27 15:43 | 40.63543 | 25.71215 | 39164 ft | 465 kts | 139° |
| 2026-04-27 15:44 | 40.58877 | 25.77107 | 39170 ft | 465 kts | 139° |
| 2026-04-27 15:44 | 40.54213 | 25.82994 | 39174 ft | 464 kts | 139° |
| 2026-04-27 15:45 | 40.49558 | 25.88885 | 39178 ft | 465 kts | 136° |
| 2026-04-27 15:45 | 40.45217 | 25.95188 | 39192 ft | 466 kts | 133° |
| 2026-04-27 15:46 | 40.41036 | 26.01605 | 39193 ft | 465 kts | 133° |
| 2026-04-27 15:46 | 40.36798 | 26.08021 | 39191 ft | 465 kts | 133° |
| 2026-04-27 15:47 | 40.32525 | 26.14392 | 39193 ft | 465 kts | 133° |
| 2026-04-27 15:47 | 40.28244 | 26.20744 | 39183 ft | 465 kts | 133° |
| 2026-04-27 15:48 | 40.23962 | 26.27092 | 39175 ft | 465 kts | 133° |
| 2026-04-27 15:49 | 40.17535 | 26.36598 | 39163 ft | 465 kts | 134° |
| 2026-04-27 15:49 | 40.13240 | 26.42917 | 39156 ft | 465 kts | 135° |
| 2026-04-27 15:50 | 40.08706 | 26.48915 | 39158 ft | 463 kts | 138° |
| 2026-04-27 15:50 | 40.04067 | 26.54746 | 39154 ft | 463 kts | 138° |
| 2026-04-27 15:51 | 39.99453 | 26.60586 | 39155 ft | 462 kts | 138° |
| 2026-04-27 15:51 | 39.94857 | 26.66454 | 39153 ft | 462 kts | 137° |
| 2026-04-27 15:52 | 39.90292 | 26.72280 | 39143 ft | 463 kts | 137° |
| 2026-04-27 15:52 | 39.85690 | 26.78137 | 39134 ft | 463 kts | 137° |
| 2026-04-27 15:53 | 39.81089 | 26.83984 | 39119 ft | 462 kts | 137° |
| 2026-04-27 15:53 | 39.76483 | 26.89824 | 39121 ft | 462 kts | 138° |
| 2026-04-27 15:54 | 39.71824 | 26.95585 | 39110 ft | 462 kts | 139° |
| 2026-04-27 15:54 | 39.67144 | 27.01306 | 39109 ft | 462 kts | 139° |
| 2026-04-27 15:55 | 39.62472 | 27.07026 | 39104 ft | 462 kts | 139° |
| 2026-04-27 15:55 | 39.57802 | 27.12748 | 39101 ft | 462 kts | 139° |
| 2026-04-27 15:56 | 39.53130 | 27.18458 | 39105 ft | 462 kts | 139° |
| 2026-04-27 15:56 | 39.48548 | 27.24289 | 39096 ft | 463 kts | 132° |